KSTS/STS METAR and TAF weather

Enter ICAO airport designator
Station Type Date Time Source
KSTS METAR 2020/09/28 09:53 UTC NOAA

KSTS 280953Z AUTO 18004KT 9SM FU OVC055 19/09 A2987 RMK AO2 SLP108 T01940094


Station Type Date Time Source
KSTS Decoded METAR 2020/09/28 09:53 UTC NOAA

SANTA ROSA SONOMA COUNTY, CA, United States (KSTS) 38-30N 122-49W 39M
Sep 28, 2020 - 05:53 AM EDT / 2020.09.28 0953 UTC
Wind: from the S (180 degrees) at 5 MPH (4 KT):0
Visibility: 9 mile(s):0
Sky conditions: overcast
Weather: smoke
Temperature: 66.9 F (19.4 C)
Dew Point: 48.9 F (9.4 C)
Relative Humidity: 52%
Pressure (altimeter): 29.87 in. Hg (1011 hPa)
ob: KSTS 280953Z AUTO 18004KT 9SM FU OVC055 19/09 A2987 RMK AO2 SLP108 T01940094
cycle: 10

Station Type Date Time Source
KSTS TAF 2020/09/28 06:30 UTC NOAA

TAF KSTS 280529Z 2806/2906 VRB03KT 5SM FU HZ SCT070 WS020/04035KT
FM281700 VRB04KT 5SM FU HZ SKC
FM282000 19008KT 6SM FU HZ SKC
FM290300 16005KT 6SM FU HZ SKC
AMD NOT SKED TIL 280900

Example: see airport list